createdAt,value
2023-03-22T00:01:08.513Z,0
2023-03-22T00:15:08.478Z,0
2023-03-22T00:29:08.531Z,0
2023-03-22T00:43:08.534Z,0
2023-03-22T00:57:08.586Z,0
2023-03-22T01:11:08.604Z,0
2023-03-22T01:25:08.608Z,0
2023-03-22T01:39:08.608Z,0.2
2023-03-22T01:53:08.626Z,0
2023-03-22T02:07:08.625Z,0
2023-03-22T02:21:08.647Z,0
2023-03-22T02:35:09.290Z,0.2
2023-03-22T02:49:08.675Z,0
2023-03-22T03:03:08.677Z,0
2023-03-22T03:17:08.708Z,0
2023-03-22T03:31:08.745Z,0
2023-03-22T03:45:08.738Z,0
2023-03-22T03:59:08.744Z,0
2023-03-22T04:13:08.761Z,0
2023-03-22T04:27:08.778Z,0
2023-03-22T04:41:08.787Z,0
2023-03-22T04:55:08.801Z,0.8
2023-03-22T05:10:08.857Z,0
2023-03-22T05:25:08.849Z,0.8
2023-03-22T05:40:09.029Z,0.8
2023-03-22T05:56:09.028Z,0.8
2023-03-22T06:11:09.042Z,0
2023-03-22T06:26:08.946Z,0
2023-03-22T06:41:09.035Z,0
2023-03-22T06:56:09.054Z,0
2023-03-22T07:11:09.076Z,0
2023-03-22T07:26:09.069Z,0
2023-03-22T07:41:08.988Z,0
2023-03-22T07:56:09.127Z,0
2023-03-22T08:11:09.126Z,0
2023-03-22T08:26:09.024Z,0.8
2023-03-22T08:41:09.035Z,0.8
2023-03-22T08:56:09.147Z,0.6
2023-03-22T09:11:09.534Z,1.4
2023-03-22T09:26:10.148Z,0.4
2023-03-22T09:41:09.184Z,0.4
2023-03-22T09:56:09.191Z,0.4
2023-03-22T10:12:11.628Z,0.7
2023-03-22T10:27:09.243Z,0.8
2023-03-22T10:42:09.145Z,1.5
2023-03-22T10:57:10.295Z,0.8
2023-03-22T11:12:09.288Z,1.2
2023-03-22T11:27:09.318Z,0.8
2023-03-22T11:42:09.325Z,1.6
2023-03-22T11:57:09.381Z,1.0
2023-03-22T12:12:09.383Z,0.9
2023-03-22T12:27:09.412Z,0.2
2023-03-22T12:42:09.292Z,0.8
2023-03-22T12:57:09.441Z,1.2
2023-03-22T13:13:09.346Z,1.2
2023-03-22T13:28:09.356Z,0.6
2023-03-22T13:43:09.360Z,1.2
2023-03-22T13:58:09.383Z,1.1
2023-03-22T14:13:09.393Z,1.0
2023-03-22T14:58:09.447Z,1.0
2023-03-22T15:13:09.453Z,0.8
2023-03-22T15:28:09.487Z,0.9
2023-03-22T15:43:09.628Z,0.4
2023-03-22T15:58:09.522Z,0.2
2023-03-22T16:13:09.545Z,0
2023-03-22T16:28:09.552Z,0.2
2023-03-22T16:43:09.595Z,0
2023-03-22T17:00:09.600Z,0
2023-03-22T17:16:09.622Z,0.4
2023-03-22T17:32:16.171Z,0
2023-03-22T17:47:30.402Z,0
2023-03-22T18:02:10.216Z,0
2023-03-22T18:16:09.685Z,0
2023-03-22T18:30:09.669Z,0
2023-03-22T18:44:09.687Z,0
2023-03-22T18:58:09.682Z,0
2023-03-22T19:12:09.855Z,0.4
2023-03-22T19:26:09.714Z,0
2023-03-22T19:40:59.598Z,0.4
2023-03-22T19:55:09.756Z,0
2023-03-22T20:09:09.749Z,0.8
2023-03-22T20:23:09.784Z,0.2
2023-03-22T20:37:09.786Z,0.2
2023-03-22T20:51:09.796Z,0.8
2023-03-22T21:05:10.699Z,0.8
2023-03-22T21:19:09.813Z,0.8
2023-03-22T21:33:09.881Z,0.8
2023-03-22T21:47:09.866Z,0.8
2023-03-22T22:01:09.885Z,0.8
2023-03-22T22:15:09.883Z,0.8
2023-03-22T22:29:09.899Z,0.8
2023-03-22T22:43:09.915Z,0.6
2023-03-22T22:57:09.938Z,0.8
2023-03-22T23:11:09.940Z,0.8
2023-03-22T23:25:09.960Z,0.8
2023-03-22T23:39:09.958Z,0.8
2023-03-22T23:53:09.969Z,0.8
